Time;durP1;ratioP1;P1;durP2;ratioP2;P2;SDS_P1;SDS_P2;PMS_P1;PMS_P2;Temp;Humidity;BMP_temperature;BMP_pressure;BME280_temperature;BME280_humidity;BME280_pressure;Samples;Min_cycle;Max_cycle;Signal;HPM_P1;HPM_P2
2022/04/26 03:37:19;;;;;;;26.98;11.63;;;6.40;99.90;;;;;;4979034;28;20076;-73
2022/04/26 03:39:45;;;;;;;29.88;12.07;;;6.40;99.90;;;;;;4884172;28;222266;-72
2022/04/26 03:42:12;;;;;;;25.65;12.10;;;6.40;99.90;;;;;;4962080;28;20619;-72
2022/04/26 03:44:39;;;;;;;25.40;12.07;;;6.40;99.90;;;;;;4911640;28;35310;-72
2022/04/26 03:47:05;;;;;;;25.35;12.45;;;6.40;99.90;;;;;;4954659;28;20074;-73
2022/04/26 03:49:31;;;;;;;27.33;13.23;;;6.40;99.90;;;;;;4913518;28;222161;-72
2022/04/26 03:51:57;;;;;;;25.10;12.85;;;6.30;99.90;;;;;;4955244;28;20053;-73
2022/04/26 03:54:24;;;;;;;23.67;11.35;;;6.30;99.90;;;;;;4909330;28;219775;-73
2022/04/26 03:56:51;;;;;;;25.20;12.82;;;6.30;99.90;;;;;;4960999;28;20523;-72
2022/04/26 03:59:18;;;;;;;30.02;12.73;;;6.30;99.90;;;;;;4911092;28;240083;-72
2022/04/26 04:01:48;;;;;;;30.00;12.65;;;6.30;99.90;;;;;;4957079;28;20055;-72
2022/04/26 04:04:15;;;;;;;34.05;12.20;;;6.30;99.90;;;;;;4898030;28;238363;-72
2022/04/26 04:06:41;;;;;;;38.83;13.13;;;6.30;99.90;;;;;;4957945;28;20062;-72
2022/04/26 04:09:07;;;;;;;30.77;13.32;;;6.30;99.90;;;;;;4922163;28;208310;-71
2022/04/26 04:11:33;;;;;;;30.40;13.20;;;6.30;99.90;;;;;;4981406;28;20066;-72
2022/04/26 04:13:59;;;;;;;32.50;13.32;;;6.30;99.90;;;;;;4923277;28;89222;-73
2022/04/26 04:16:26;;;;;;;27.45;13.18;;;6.30;99.90;;;;;;4974217;28;20388;-72
2022/04/26 04:21:36;;;;;;;31.30;13.18;;;6.30;99.90;;;;;;4935383;28;20055;-71
2022/04/26 04:24:03;;;;;;;37.47;13.37;;;6.20;99.90;;;;;;4916083;28;98403;-72
2022/04/26 04:26:29;;;;;;;39.25;12.90;;;6.20;99.90;;;;;;4937018;28;20542;-72
2022/04/26 04:28:55;;;;;;;30.38;12.20;;;6.30;99.90;;;;;;4920599;28;222391;-72
2022/04/26 04:31:21;;;;;;;27.15;12.45;;;6.30;99.90;;;;;;4939939;28;20046;-72
2022/04/26 04:33:48;;;;;;;26.17;12.20;;;6.20;99.90;;;;;;4936090;28;20511;-72
2022/04/26 04:36:15;;;;;;;33.00;11.50;;;6.30;99.90;;;;;;4949385;28;213435;-71
2022/04/26 04:38:41;;;;;;;32.95;12.15;;;6.30;99.90;;;;;;4921520;28;20046;-72
2022/04/26 04:41:08;;;;;;;28.95;11.63;;;6.40;99.90;;;;;;4953938;28;29425;-71
2022/04/26 04:43:34;;;;;;;25.63;12.18;;;6.40;99.90;;;;;;4937881;28;20051;-72
2022/04/26 04:46:01;;;;;;;23.85;11.68;;;6.40;99.90;;;;;;4950244;28;122742;-72
2022/04/26 04:48:28;;;;;;;27.23;11.23;;;6.40;99.90;;;;;;4952054;28;20051;-72
2022/04/26 04:50:54;;;;;;;36.38;11.35;;;6.50;99.90;;;;;;4929127;28;245230;-72
2022/04/26 04:53:21;;;;;;;36.42;11.48;;;6.40;99.90;;;;;;4934192;28;20511;-71
2022/04/26 04:55:47;;;;;;;29.85;9.77;;;6.50;99.90;;;;;;4948769;28;206319;-73
2022/04/26 04:58:13;;;;;;;28.10;10.00;;;6.50;99.90;;;;;;4961726;28;20055;-72
2022/04/26 05:00:40;;;;;;;35.88;10.15;;;6.50;99.90;;;;;;4890622;28;111151;-73
2022/04/26 05:03:06;;;;;;;25.45;8.90;;;6.60;99.90;;;;;;4990683;28;20050;-72
2022/04/26 05:05:33;;;;;;;21.92;9.15;;;6.60;99.90;;;;;;4874551;28;204716;-72
2022/04/26 05:07:59;;;;;;;23.23;9.40;;;6.60;99.90;;;;;;4959974;28;20078;-72
2022/04/26 05:10:25;;;;;;;19.60;8.55;;;6.70;99.90;;;;;;4913648;28;20051;-72
2022/04/26 05:12:52;;;;;;;24.63;9.05;;;6.70;99.90;;;;;;4958725;28;20059;-71
2022/04/26 05:15:18;;;;;;;23.73;8.50;;;6.80;99.90;;;;;;4932544;28;22234;-72
2022/04/26 05:17:44;;;;;;;23.77;8.30;;;6.90;99.90;;;;;;4964417;28;20058;-72
2022/04/26 05:20:10;;;;;;;24.95;8.20;;;7.00;99.90;;;;;;4934038;28;134463;-71
2022/04/26 05:25:22;;;;;;;25.70;7.78;;;7.20;99.90;;;;;;4945236;28;51832;-72
2022/04/26 05:27:48;;;;;;;19.38;7.18;;;7.30;99.90;;;;;;4990556;28;20059;-71
2022/04/26 05:30:14;;;;;;;21.10;7.03;;;7.40;99.90;;;;;;4911992;28;48679;-72
2022/04/26 05:32:40;;;;;;;24.30;6.55;;;7.50;99.90;;;;;;4966602;28;20054;-71
2022/04/26 05:35:07;;;;;;;24.42;6.88;;;7.60;99.90;;;;;;4900382;28;82218;-71
2022/04/26 05:37:33;;;;;;;18.17;6.68;;;7.60;99.90;;;;;;4954456;28;20049;-72
2022/04/26 05:40:02;;;;;;;20.63;6.18;;;7.60;99.90;;;;;;4909251;28;196385;-74
2022/04/26 05:42:29;;;;;;;16.02;5.70;;;7.70;99.90;;;;;;4961434;28;20520;-72
2022/04/26 05:44:56;;;;;;;19.20;6.00;;;7.80;99.90;;;;;;4928317;28;249368;-73
2022/04/26 05:47:23;;;;;;;18.70;6.43;;;7.70;99.90;;;;;;4962590;28;20519;-71
2022/04/26 05:49:49;;;;;;;19.00;6.22;;;7.70;99.90;;;;;;4922772;28;174493;-71
2022/04/26 05:52:15;;;;;;;19.73;6.40;;;7.80;99.90;;;;;;4957729;28;20046;-74
2022/04/26 05:54:42;;;;;;;24.52;7.05;;;7.80;99.90;;;;;;4905175;28;106535;-73
2022/04/26 05:57:08;;;;;;;22.35;6.28;;;7.70;99.90;;;;;;4976499;28;20142;-73
2022/04/26 05:59:34;;;;;;;25.02;6.55;;;7.70;99.90;;;;;;4923517;28;129428;-72
2022/04/26 06:02:01;;;;;;;17.30;5.65;;;7.70;99.90;;;;;;4942881;28;20061;-72
2022/04/26 06:04:27;;;;;;;22.52;6.20;;;7.80;99.90;;;;;;4887900;28;248335;-73
2022/04/26 06:06:53;;;;;;;17.90;5.90;;;8.00;99.90;;;;;;4941523;28;20065;-73
2022/04/26 06:09:20;;;;;;;17.27;6.10;;;8.30;99.90;;;;;;4915710;28;29169;-72
2022/04/26 06:11:46;;;;;;;24.27;6.13;;;8.50;99.90;;;;;;4924958;28;20055;-72
2022/04/26 06:14:14;;;;;;;25.10;5.70;;;8.70;99.90;;;;;;4917100;28;38334;-73
2022/04/26 06:16:40;;;;;;;20.05;5.35;;;8.90;99.90;;;;;;4954090;28;20101;-73
2022/04/26 06:19:06;;;;;;;18.23;5.07;;;9.10;99.90;;;;;;4919194;28;222021;-73
2022/04/26 06:21:32;;;;;;;21.02;4.90;;;9.40;99.90;;;;;;4957634;28;20061;-72
2022/04/26 06:23:59;;;;;;;18.00;5.22;;;9.70;99.90;;;;;;4917966;28;209977;-72
2022/04/26 06:26:25;;;;;;;17.67;5.00;;;9.90;99.90;;;;;;4967065;28;20066;-72
2022/04/26 06:28:51;;;;;;;17.08;5.28;;;10.10;99.90;;;;;;4936716;28;20049;-73
2022/04/26 06:31:17;;;;;;;15.20;4.57;;;10.30;99.90;;;;;;4955763;28;121881;-73
2022/04/26 06:33:43;;;;;;;14.30;4.60;;;10.30;99.90;;;;;;4936465;28;20053;-72
2022/04/26 06:36:09;;;;;;;18.20;5.10;;;10.30;99.90;;;;;;4942594;28;131496;-72
2022/04/26 06:38:35;;;;;;;17.30;4.78;;;10.30;99.90;;;;;;4935566;28;20054;-72
2022/04/26 06:41:01;;;;;;;15.55;4.00;;;10.30;99.90;;;;;;4935296;28;173437;-72
2022/04/26 06:43:32;;;;;;;12.90;3.78;;;10.20;99.90;;;;;;4934404;28;20054;-72
2022/04/26 06:45:58;;;;;;;13.15;4.00;;;9.90;99.90;;;;;;4933291;28;21215;-72
2022/04/26 06:48:24;;;;;;;14.52;3.85;;;9.50;99.90;;;;;;4951345;28;20050;-72
2022/04/26 06:50:50;;;;;;;13.73;3.92;;;9.40;99.90;;;;;;4926680;28;32809;-72
2022/04/26 06:53:17;;;;;;;13.45;4.18;;;9.20;99.90;;;;;;4979992;28;20235;-73
2022/04/26 06:55:43;;;;;;;15.88;3.95;;;9.10;99.90;;;;;;4926609;28;152299;-72
2022/04/26 06:58:09;;;;;;;11.13;3.55;;;9.00;99.90;;;;;;4979784;28;20051;-73
2022/04/26 07:00:35;;;;;;;20.05;3.80;;;8.90;99.90;;;;;;4894459;28;178608;-71
2022/04/26 07:03:01;;;;;;;12.55;3.83;;;9.10;99.90;;;;;;4960805;28;20046;-72
2022/04/26 07:05:27;;;;;;;15.40;3.65;;;9.30;99.90;;;;;;4908342;28;223664;-71
2022/04/26 07:07:53;;;;;;;12.60;3.63;;;9.20;99.90;;;;;;4958836;28;20054;-72
2022/04/26 07:10:20;;;;;;;12.15;3.88;;;9.50;99.90;;;;;;4918325;28;236796;-72
2022/04/26 07:12:46;;;;;;;17.35;3.63;;;9.90;99.90;;;;;;4978977;28;20057;-71
2022/04/26 07:15:12;;;;;;;14.95;3.58;;;10.00;99.90;;;;;;4925066;28;60641;-71
2022/04/26 07:17:43;;;;;;;13.27;3.13;;;10.00;99.90;;;;;;4973872;28;20412;-72
2022/04/26 07:20:09;;;;;;;11.85;3.22;;;9.80;99.90;;;;;;4889439;28;219798;-72
2022/04/26 07:22:36;;;;;;;14.25;3.17;;;9.90;99.90;;;;;;4989040;28;20054;-74
2022/04/26 07:25:07;;;;;;;17.33;3.40;;;10.50;99.90;;;;;;4917210;28;62204;-72
2022/04/26 07:27:33;;;;;;;14.48;3.13;;;11.00;99.90;;;;;;4975672;28;20054;-72
2022/04/26 07:30:00;;;;;;;11.43;3.10;;;11.20;99.90;;;;;;4927230;28;185841;-72
2022/04/26 07:35:12;;;;;;;12.93;3.17;;;12.30;99.90;;;;;;4862101;29;20060;-73
2022/04/26 07:37:40;;;;;;;12.88;3.40;;;12.30;99.90;;;;;;4911032;29;20154;-72
2022/04/26 07:40:07;;;;;;;12.90;2.90;;;12.30;99.90;;;;;;4865645;29;224537;-72
2022/04/26 07:42:34;;;;;;;12.02;3.25;;;12.00;99.90;;;;;;4911967;29;20066;-72
2022/04/26 07:45:00;;;;;;;13.77;3.10;;;11.60;99.90;;;;;;4871505;29;143827;-72
2022/04/26 07:47:26;;;;;;;10.85;3.03;;;11.40;99.90;;;;;;4909884;29;20055;-71
2022/04/26 07:49:54;;;;;;;10.40;2.92;;;11.00;99.90;;;;;;4899846;29;153478;-71
2022/04/26 07:52:21;;;;;;;14.02;3.55;;;10.80;99.90;;;;;;4936547;29;20251;-71
2022/04/26 07:54:48;;;;;;;15.10;3.10;;;11.00;99.90;;;;;;4900015;29;20056;-71
2022/04/26 07:57:14;;;;;;;11.05;3.00;;;11.30;99.90;;;;;;4932359;29;20059;-70
2022/04/26 07:59:40;;;;;;;13.52;3.08;;;11.70;99.90;;;;;;4883096;29;206925;-71
2022/04/26 08:02:07;;;;;;;11.85;2.95;;;12.10;99.90;;;;;;4932331;29;20078;-71
2022/04/26 08:04:33;;;;;;;11.35;2.70;;;12.70;99.90;;;;;;4882944;28;155217;-71
2022/04/26 08:06:59;;;;;;;10.63;2.70;;;13.40;99.90;;;;;;4947054;28;20063;-71
2022/04/26 08:09:26;;;;;;;11.05;2.90;;;13.70;99.90;;;;;;4897866;29;163264;-71
2022/04/26 08:11:52;;;;;;;12.48;3.05;;;13.50;99.90;;;;;;4938499;28;20074;-71
2022/04/26 08:14:20;;;;;;;13.98;3.60;;;13.50;99.90;;;;;;4930884;28;119943;-71
2022/04/26 08:16:46;;;;;;;12.07;3.00;;;13.30;99.90;;;;;;4975042;28;20518;-71
2022/04/26 08:19:13;;;;;;;14.98;3.50;;;13.20;99.90;;;;;;4930373;28;63557;-72
2022/04/26 08:21:39;;;;;;;16.33;3.33;;;13.00;99.90;;;;;;4978975;28;20057;-71
2022/04/26 08:29:35;;;;;;;14.23;3.55;;;13.40;99.90;;;;;;4933741;28;49438;-71
2022/04/26 08:32:01;;;;;;;10.77;3.63;;;13.60;99.90;;;;;;4960260;28;20070;-72
2022/04/26 08:34:28;;;;;;;17.23;4.03;;;13.70;99.60;;;;;;4928694;28;27862;-71
2022/04/26 08:36:54;;;;;;;12.45;3.00;;;13.70;99.90;;;;;;4964113;28;20530;-71
2022/04/26 08:39:21;;;;;;;13.00;3.45;;;14.00;99.90;;;;;;4936943;28;222390;-71
2022/04/26 08:41:47;;;;;;;11.98;3.17;;;14.20;98.80;;;;;;4971206;28;20115;-71
2022/04/26 08:44:13;;;;;;;12.73;3.13;;;14.70;99.90;;;;;;4922861;28;42453;-71
2022/04/26 08:52:10;;;;;;;10.18;2.65;;;15.10;95.20;;;;;;4964863;28;20069;-71
2022/04/26 08:54:36;;;;;;;10.77;2.67;;;14.60;95.10;;;;;;4933376;28;69055;-71
2022/04/26 08:57:03;;;;;;;9.90;2.95;;;14.80;95.10;;;;;;4965450;28;20090;-72
2022/04/26 08:59:32;;;;;;;11.02;3.00;;;15.20;96.30;;;;;;4936929;28;25541;-72
2022/04/26 09:02:34;;;;;;;10.32;2.55;;;15.40;94.90;;;;;;4970773;28;20066;-71
2022/04/26 09:05:08;;;;;;;8.60;2.30;;;16.00;91.60;;;;;;4825808;29;183237;-71
2022/04/26 09:07:37;;;;;;;10.95;2.90;;;15.90;89.00;;;;;;4907445;29;20067;-71
2022/04/26 09:10:16;;;;;;;13.82;2.70;;;16.10;93.30;;;;;;4843532;29;176401;-71
2022/04/26 09:13:07;;;;;;;9.18;2.67;;;16.30;92.10;;;;;;4898813;29;20083;-71
2022/04/26 09:15:41;;;;;;;13.82;2.72;;;15.80;89.40;;;;;;4770231;29;236244;-72
2022/04/26 09:18:30;;;;;;;10.75;2.42;;;15.70;91.20;;;;;;4846524;29;20105;-72
2022/04/26 09:21:09;;;;;;;9.15;2.67;;;15.30;90.90;;;;;;4807014;29;36600;-71
2022/04/26 09:23:38;;;;;;;8.75;2.53;;;14.80;91.00;;;;;;4802061;29;20568;-73
2022/04/26 09:26:07;;;;;;;10.48;2.90;;;14.10;93.00;;;;;;4827446;29;103417;-71
2022/04/26 09:28:35;;;;;;;9.52;2.47;;;14.20;93.40;;;;;;4810096;29;20062;-71
2022/04/26 09:31:13;;;;;;;10.05;2.58;;;14.40;92.60;;;;;;4827367;29;241531;-71
2022/04/26 09:33:47;;;;;;;11.00;2.80;;;14.80;92.40;;;;;;4804973;29;20788;-71
2022/04/26 09:36:15;;;;;;;12.07;2.60;;;15.10;91.00;;;;;;4814316;29;177561;-71
2022/04/26 09:38:50;;;;;;;10.40;2.60;;;15.70;91.30;;;;;;4832006;29;20109;-71
2022/04/26 09:41:17;;;;;;;12.15;2.90;;;16.80;90.20;;;;;;4870112;29;95055;-72
2022/04/26 09:43:43;;;;;;;10.60;2.47;;;17.20;88.80;;;;;;4856167;29;20051;-71
2022/04/26 09:46:09;;;;;;;12.00;2.83;;;17.30;79.40;;;;;;4867389;29;63832;-71
2022/04/26 09:48:38;;;;;;;10.15;2.60;;;17.20;79.10;;;;;;4841089;29;20050;-71
2022/04/26 09:51:08;;;;;;;10.70;2.78;;;17.50;83.00;;;;;;4845353;29;143970;-71
2022/04/26 09:53:35;;;;;;;9.10;2.38;;;18.00;80.00;;;;;;4922149;28;20067;-72
2022/04/26 09:56:03;;;;;;;11.40;2.58;;;17.60;76.30;;;;;;4919576;28;252397;-73
2022/04/26 09:58:30;;;;;;;9.27;2.30;;;16.90;75.20;;;;;;4931959;28;20416;-72
2022/04/26 10:01:04;;;;;;;10.65;2.72;;;17.30;78.20;;;;;;4939467;28;134037;-72
2022/04/26 10:03:39;;;;;;;9.05;2.33;;;17.30;75.70;;;;;;4935289;28;20054;-71
2022/04/26 10:06:07;;;;;;;10.23;2.63;;;17.40;74.90;;;;;;4939334;28;111900;-72
2022/04/26 10:08:35;;;;;;;10.43;2.83;;;17.60;70.00;;;;;;4935086;28;20054;-72
2022/04/26 10:11:05;;;;;;;9.18;2.50;;;17.60;71.30;;;;;;4925426;28;55588;-72
2022/04/26 10:13:42;;;;;;;11.73;2.47;;;17.50;68.30;;;;;;4941007;28;20246;-72
2022/04/26 10:16:10;;;;;;;8.30;2.20;;;17.40;68.20;;;;;;4942717;28;168461;-72
2022/04/26 10:18:43;;;;;;;9.30;2.30;;;16.90;67.80;;;;;;4934986;28;20048;-72
2022/04/26 10:21:11;;;;;;;14.13;2.70;;;17.10;69.10;;;;;;4959878;28;212380;-72
2022/04/26 10:23:56;;;;;;;10.70;2.67;;;17.50;67.10;;;;;;4933466;28;20667;-72
2022/04/26 10:26:23;;;;;;;9.70;2.38;;;17.70;65.50;;;;;;4920092;28;20050;-73
2022/04/26 10:28:53;;;;;;;8.60;2.45;;;17.50;65.90;;;;;;4936460;28;20054;-72
2022/04/26 10:31:40;;;;;;;10.90;2.40;;;17.40;65.80;;;;;;4914185;28;1438326;-72
2022/04/26 10:34:23;;;;;;;9.40;2.20;;;17.70;62.10;;;;;;4896303;28;61499;-72
2022/04/26 10:37:03;;;;;;;9.93;2.38;;;17.80;62.00;;;;;;4944470;28;20059;-71
2022/04/26 10:39:36;;;;;;;8.85;2.30;;;17.60;62.60;;;;;;4931986;28;75318;-73
2022/04/26 10:42:26;;;;;;;9.32;2.20;;;17.60;60.90;;;;;;4956035;28;20085;-73
2022/04/26 10:44:58;;;;;;;6.45;1.83;;;17.90;58.30;;;;;;4939079;28;86322;-73
2022/04/26 10:47:26;;;;;;;9.55;2.40;;;18.00;58.70;;;;;;4984367;28;20054;-73
2022/04/26 10:49:54;;;;;;;11.23;2.58;;;18.30;57.30;;;;;;4906198;28;97759;-73
2022/04/26 10:52:23;;;;;;;8.23;2.30;;;18.60;57.60;;;;;;4950822;28;20058;-72
2022/04/26 10:57:23;;;;;;;8.05;2.10;;;19.10;59.00;;;;;;4960875;28;20153;-72
2022/04/26 10:59:56;;;;;;;9.60;2.30;;;19.30;58.30;;;;;;4917143;28;99227;-72
2022/04/26 11:02:25;;;;;;;9.10;2.40;;;19.10;57.00;;;;;;4966987;28;20055;-73
2022/04/26 11:04:59;;;;;;;8.80;2.03;;;18.60;55.90;;;;;;4905359;28;169061;-73
2022/04/26 11:07:26;;;;;;;9.15;2.58;;;18.30;54.60;;;;;;4968335;28;20058;-73
2022/04/26 11:09:54;;;;;;;10.27;2.28;;;18.80;57.00;;;;;;4927269;28;104466;-73
2022/04/26 11:12:23;;;;;;;9.05;2.22;;;19.10;52.60;;;;;;4978786;28;20046;-72
2022/04/26 11:14:53;;;;;;;10.27;2.40;;;18.30;53.00;;;;;;4924804;28;160029;-72
2022/04/26 11:17:24;;;;;;;8.27;2.13;;;18.50;54.20;;;;;;4978287;28;20070;-73
2022/04/26 11:19:56;;;;;;;10.73;2.25;;;18.80;54.50;;;;;;4933033;28;166403;-73
2022/04/26 11:22:23;;;;;;;9.00;2.28;;;19.50;52.10;;;;;;4948046;28;20058;-73
2022/04/26 11:30:28;;;;;;;9.20;2.20;;;19.20;52.00;;;;;;4942314;28;187863;-73
2022/04/26 11:33:00;;;;;;;8.00;2.28;;;19.10;51.50;;;;;;4972646;28;20047;-72
2022/04/26 11:35:28;;;;;;;9.50;2.20;;;19.70;51.80;;;;;;4938668;28;138819;-72
2022/04/26 11:37:57;;;;;;;8.38;2.17;;;19.70;51.20;;;;;;4981176;28;20050;-72
2022/04/26 11:40:31;;;;;;;9.35;2.00;;;20.10;51.70;;;;;;4927906;28;85107;-72
2022/04/26 11:43:04;;;;;;;9.38;2.00;;;20.70;48.30;;;;;;5006328;28;20063;-72
2022/04/26 11:45:33;;;;;;;9.10;2.20;;;20.20;47.80;;;;;;4917909;28;102188;-72
2022/04/26 11:48:00;;;;;;;8.63;2.10;;;19.10;49.40;;;;;;4977378;28;20049;-72
2022/04/26 11:50:28;;;;;;;9.30;2.10;;;19.00;52.10;;;;;;4913915;28;209760;-73
2022/04/26 11:53:06;;;;;;;8.60;2.40;;;20.20;51.70;;;;;;4994669;28;20058;-73
2022/04/26 11:55:34;;;;;;;9.50;2.00;;;20.70;49.40;;;;;;4951527;28;98586;-72
2022/04/26 11:58:12;;;;;;;8.80;2.40;;;21.10;48.00;;;;;;4983723;28;20228;-72
2022/04/26 12:00:51;;;;;;;9.05;2.22;;;21.10;46.30;;;;;;4949257;28;173414;-72
2022/04/26 12:03:19;;;;;;;7.75;2.25;;;21.10;45.80;;;;;;4963737;28;20054;-72
2022/04/26 12:05:56;;;;;;;9.10;2.60;;;20.80;45.70;;;;;;4925640;28;255457;-72
2022/04/26 12:08:23;;;;;;;9.32;2.25;;;19.80;45.70;;;;;;4955046;28;20063;-71
2022/04/26 12:10:49;;;;;;;9.25;2.33;;;19.20;47.60;;;;;;4980044;28;39683;-72
2022/04/26 12:13:28;;;;;;;8.65;2.50;;;19.80;48.70;;;;;;4987378;28;20053;-73
2022/04/26 12:15:55;;;;;;;10.63;2.78;;;19.90;47.10;;;;;;4915627;28;199533;-72
2022/04/26 12:18:21;;;;;;;9.13;2.30;;;19.60;47.00;;;;;;4961544;28;20031;-72
2022/04/26 12:21:02;;;;;;;8.77;2.50;;;19.30;47.70;;;;;;4983833;28;20149;-72
2022/04/26 12:23:30;;;;;;;9.70;2.42;;;19.70;47.60;;;;;;4959936;28;20061;-73
2022/04/26 12:26:00;;;;;;;9.52;2.13;;;19.70;47.50;;;;;;4984470;28;157834;-71
2022/04/26 12:28:26;;;;;;;8.88;2.42;;;19.70;46.30;;;;;;4959149;28;20072;-71
2022/04/26 12:30:53;;;;;;;7.53;2.28;;;19.80;46.40;;;;;;4981870;28;334810;-72
2022/04/26 12:33:25;;;;;;;9.73;2.40;;;19.40;46.50;;;;;;4962503;28;20050;-72
2022/04/26 12:35:59;;;;;;;8.10;2.25;;;19.50;45.90;;;;;;4983675;28;123707;-72
2022/04/26 12:38:25;;;;;;;8.18;2.00;;;20.00;46.80;;;;;;4960497;28;20041;-71
2022/04/26 12:41:05;;;;;;;9.35;2.40;;;20.40;45.80;;;;;;4962334;28;133710;-72
2022/04/26 12:43:33;;;;;;;10.82;2.63;;;20.70;45.20;;;;;;4958323;28;20067;-71
2022/04/26 12:46:04;;;;;;;8.55;2.15;;;20.30;44.90;;;;;;4982111;28;87870;-71
2022/04/26 12:51:24;;;;;;;9.13;2.30;;;18.80;47.10;;;;;;4948381;28;242205;-71
2022/04/26 12:53:52;;;;;;;8.40;2.40;;;19.00;47.40;;;;;;4941043;28;20034;-71
2022/04/26 12:56:19;;;;;;;9.30;2.28;;;19.30;48.10;;;;;;4955117;28;20061;-71
2022/04/26 12:58:47;;;;;;;9.30;2.20;;;19.40;47.00;;;;;;4951266;28;20145;-71
2022/04/26 13:01:15;;;;;;;9.60;2.20;;;19.60;46.90;;;;;;4997310;28;81884;-70
2022/04/26 13:03:46;;;;;;;9.32;2.28;;;19.10;47.00;;;;;;4957511;28;20026;-72
2022/04/26 13:06:18;;;;;;;7.18;2.25;;;19.70;47.00;;;;;;4950936;28;220454;-71
2022/04/26 13:08:53;;;;;;;11.95;2.20;;;20.00;46.40;;;;;;4965321;28;20055;-71
2022/04/26 13:11:19;;;;;;;10.15;2.38;;;20.20;45.80;;;;;;4982782;28;20033;-71
2022/04/26 13:13:48;;;;;;;9.60;2.65;;;20.50;44.20;;;;;;4954918;28;20049;-71
2022/04/26 13:16:14;;;;;;;9.65;2.17;;;20.50;44.30;;;;;;4962775;28;101578;-71
2022/04/26 13:18:41;;;;;;;9.40;2.10;;;20.50;43.20;;;;;;4960193;28;20062;-71
2022/04/26 13:21:07;;;;;;;7.70;2.20;;;20.50;44.00;;;;;;4941153;28;118549;-69
2022/04/26 13:23:34;;;;;;;7.65;1.98;;;20.40;44.40;;;;;;4957062;28;20055;-70
2022/04/26 13:26:06;;;;;;;9.10;2.17;;;20.30;44.30;;;;;;4970278;28;23104;-70
2022/04/26 13:28:33;;;;;;;7.53;2.03;;;20.60;43.40;;;;;;4955775;28;20042;-70
2022/04/26 13:30:59;;;;;;;7.70;2.03;;;21.00;45.20;;;;;;4944292;28;33469;-70
2022/04/26 13:33:25;;;;;;;7.38;2.17;;;21.20;43.10;;;;;;4947169;28;20066;-71
2022/04/26 13:35:55;;;;;;;8.88;2.13;;;20.60;41.70;;;;;;4968073;28;166281;-71
2022/04/26 13:38:21;;;;;;;9.25;2.10;;;20.30;43.80;;;;;;4985941;28;20067;-71
2022/04/26 13:40:48;;;;;;;8.82;1.98;;;20.10;44.20;;;;;;4972758;28;71125;-69
2022/04/26 13:43:14;;;;;;;8.20;2.20;;;20.30;44.90;;;;;;4965911;28;20049;-71
2022/04/26 13:45:41;;;;;;;7.72;2.35;;;19.70;44.60;;;;;;4952039;28;256446;-70
2022/04/26 13:48:14;;;;;;;9.80;2.35;;;19.40;46.10;;;;;;4988599;28;20262;-70
2022/04/26 13:50:40;;;;;;;9.40;2.22;;;19.30;46.70;;;;;;4945555;28;64399;-69
2022/04/26 13:53:07;;;;;;;9.88;2.60;;;20.00;47.10;;;;;;5001117;28;20055;-69
2022/04/26 13:55:33;;;;;;;8.98;2.30;;;20.60;44.80;;;;;;4919174;28;81716;-70
2022/04/26 13:58:02;;;;;;;10.73;2.30;;;20.50;45.40;;;;;;4980633;28;20047;-71
2022/04/26 14:00:30;;;;;;;10.13;2.40;;;20.20;45.40;;;;;;4926148;28;233803;-71
2022/04/26 14:02:56;;;;;;;9.75;2.40;;;20.50;45.90;;;;;;4984542;28;20082;-71
2022/04/26 14:05:24;;;;;;;9.10;2.28;;;20.30;45.10;;;;;;4921173;28;167464;-71
2022/04/26 14:07:51;;;;;;;10.13;2.30;;;19.60;45.60;;;;;;4988516;28;20064;-71
2022/04/26 14:10:17;;;;;;;9.68;2.50;;;18.80;46.60;;;;;;4925722;28;20045;-70
2022/04/26 14:12:43;;;;;;;8.57;2.30;;;18.10;46.70;;;;;;4982575;28;20055;-70
2022/04/26 14:23:28;;;;;;;8.90;2.67;;;16.80;50.50;;;;;;4956388;28;20070;-71
2022/04/26 14:25:55;;;;;;;9.30;2.75;;;16.20;51.00;;;;;;4983422;28;241927;-70
2022/04/26 14:28:21;;;;;;;11.95;2.85;;;16.30;52.30;;;;;;4948837;28;20050;-71
2022/04/26 14:30:47;;;;;;;11.15;2.78;;;16.60;52.30;;;;;;4942906;28;105572;-70
2022/04/26 14:33:14;;;;;;;10.52;2.67;;;17.10;51.90;;;;;;4980698;28;20134;-70
2022/04/26 14:35:40;;;;;;;12.32;2.70;;;16.80;52.10;;;;;;4941323;28;104768;-70
2022/04/26 14:38:10;;;;;;;9.93;2.38;;;16.50;52.70;;;;;;4994354;28;20045;-71
2022/04/26 14:40:37;;;;;;;10.38;2.65;;;16.90;53.10;;;;;;4940341;28;20284;-71
2022/04/26 14:43:05;;;;;;;10.45;2.60;;;17.20;52.00;;;;;;4979196;28;20062;-71
2022/04/26 14:45:32;;;;;;;9.68;2.53;;;17.20;52.10;;;;;;4921418;28;138376;-72
2022/04/26 14:48:00;;;;;;;11.70;2.58;;;17.90;51.80;;;;;;4967465;28;20062;-71
2022/04/26 14:50:27;;;;;;;29.77;5.03;;;17.30;51.50;;;;;;4923358;28;64008;-72
2022/04/26 14:52:53;;;;;;;10.05;2.72;;;16.50;52.80;;;;;;4974657;28;20058;-71
2022/04/26 14:55:19;;;;;;;11.20;2.80;;;15.90;53.70;;;;;;4938431;28;135015;-70
2022/04/26 14:57:45;;;;;;;10.77;2.60;;;15.60;54.90;;;;;;4967295;28;20057;-70
2022/04/26 15:00:12;;;;;;;10.23;2.72;;;15.20;55.60;;;;;;4936100;28;109401;-70
2022/04/26 15:02:40;;;;;;;17.80;3.45;;;14.70;57.10;;;;;;4992640;28;20458;-70
2022/04/26 15:05:08;;;;;;;15.68;3.40;;;14.60;58.80;;;;;;4906827;28;205943;-71
2022/04/26 15:10:21;;;;;;;8.60;2.70;;;16.10;59.10;;;;;;4932838;28;150121;-71
2022/04/26 15:18:20;;;;;;;9.38;2.60;;;17.30;56.10;;;;;;4964397;28;20043;-71
2022/04/26 15:20:48;;;;;;;10.13;2.67;;;17.50;55.90;;;;;;4947812;28;130620;-70
2022/04/26 15:23:15;;;;;;;10.18;2.63;;;18.00;55.10;;;;;;4971760;28;20059;-70
2022/04/26 15:25:41;;;;;;;16.00;3.63;;;18.10;53.50;;;;;;4955978;28;179457;-71
2022/04/26 15:28:10;;;;;;;20.45;3.25;;;17.80;53.30;;;;;;4984339;28;20035;-68
2022/04/26 15:30:42;;;;;;;9.05;2.58;;;17.80;53.00;;;;;;4941695;28;45833;-71
2022/04/26 15:33:08;;;;;;;13.98;2.78;;;17.90;52.90;;;;;;4970136;28;20035;-69
2022/04/26 15:35:36;;;;;;;11.15;2.47;;;18.20;52.90;;;;;;4934489;28;97597;-69
2022/04/26 15:38:03;;;;;;;13.02;2.50;;;18.20;53.10;;;;;;4987347;28;20054;-69
2022/04/26 15:40:29;;;;;;;15.82;3.15;;;18.50;52.90;;;;;;4932381;28;58364;-70
2022/04/26 15:42:55;;;;;;;23.95;3.50;;;18.10;52.90;;;;;;4989005;28;20039;-69
2022/04/26 15:45:21;;;;;;;16.35;3.25;;;18.30;52.40;;;;;;4966488;28;114746;-68
2022/04/26 15:47:47;;;;;;;12.00;2.97;;;18.10;52.10;;;;;;4990334;28;20051;-70
2022/04/26 15:50:13;;;;;;;11.25;2.40;;;18.30;51.30;;;;;;4935917;28;100580;-70
2022/04/26 15:52:40;;;;;;;11.75;2.53;;;18.40;50.90;;;;;;4984280;28;20055;-69
2022/04/26 15:55:07;;;;;;;10.35;2.40;;;18.50;51.50;;;;;;4940906;28;247489;-70
2022/04/26 15:57:33;;;;;;;8.82;2.30;;;18.30;50.60;;;;;;4982996;28;20077;-69
2022/04/26 16:00:00;;;;;;;8.88;2.38;;;18.00;51.40;;;;;;4950716;28;91723;-70
2022/04/26 16:02:27;;;;;;;10.20;2.45;;;17.80;51.80;;;;;;4992416;28;20054;-70
2022/04/26 16:04:53;;;;;;;9.32;2.47;;;18.00;51.80;;;;;;4919657;28;165045;-69
2022/04/26 16:07:19;;;;;;;8.18;2.40;;;17.40;51.50;;;;;;4995111;28;20118;-70
2022/04/26 16:20:43;;;;;;;16.25;2.80;;;14.80;57.20;;;;;;4955598;28;163258;-69
2022/04/26 16:23:10;;;;;;;11.75;2.60;;;14.50;58.40;;;;;;4987438;28;20058;-69
2022/04/26 16:25:36;;;;;;;11.60;2.83;;;14.60;59.00;;;;;;4931844;28;118732;-69
2022/04/26 16:28:03;;;;;;;11.07;2.65;;;14.80;58.90;;;;;;4986597;28;20143;-69
2022/04/26 16:30:30;;;;;;;9.20;2.50;;;15.30;59.20;;;;;;4943804;28;110643;-69
2022/04/26 16:32:58;;;;;;;10.00;2.78;;;14.70;59.80;;;;;;4997189;28;20058;-70
2022/04/26 16:35:25;;;;;;;12.60;2.88;;;14.50;60.70;;;;;;4952636;28;171563;-69
2022/04/26 16:37:55;;;;;;;11.00;2.85;;;14.10;61.60;;;;;;4978802;28;20062;-69
2022/04/26 16:40:22;;;;;;;10.07;2.80;;;13.90;62.80;;;;;;4927058;28;225109;-69
2022/04/26 16:42:48;;;;;;;8.77;2.70;;;13.90;63.60;;;;;;4986012;28;20056;-69
2022/04/26 16:45:14;;;;;;;10.75;2.88;;;13.80;64.50;;;;;;4943279;28;99423;-69
2022/04/26 16:47:41;;;;;;;10.63;3.08;;;13.80;65.00;;;;;;4986599;28;20053;-70
2022/04/26 16:50:07;;;;;;;12.00;2.65;;;13.60;66.30;;;;;;4936370;28;103927;-70
2022/04/26 16:52:35;;;;;;;9.23;2.50;;;13.40;67.40;;;;;;4983260;28;20051;-70
2022/04/26 16:55:02;;;;;;;9.88;2.65;;;13.40;69.30;;;;;;4931701;28;119094;-69
2022/04/26 16:57:28;;;;;;;10.68;2.80;;;13.20;71.00;;;;;;4975371;28;20065;-68
2022/04/26 16:59:56;;;;;;;8.98;2.75;;;13.30;72.30;;;;;;4929297;28;118187;-70
2022/04/26 17:02:27;;;;;;;10.70;2.97;;;13.60;72.90;;;;;;4957213;28;20062;-71
2022/04/26 17:04:54;;;;;;;12.38;2.67;;;13.80;72.90;;;;;;4909290;28;139869;-71
2022/04/26 17:07:20;;;;;;;9.38;2.97;;;13.90;73.30;;;;;;4962681;28;20057;-70
2022/04/26 17:09:46;;;;;;;10.70;2.83;;;13.80;73.70;;;;;;4910414;28;203528;-69
2022/04/26 17:12:14;;;;;;;11.52;2.97;;;13.80;74.00;;;;;;4938570;28;20054;-69
2022/04/26 17:14:41;;;;;;;9.75;2.88;;;13.70;75.10;;;;;;4916565;28;65091;-70
2022/04/26 17:17:08;;;;;;;11.35;2.97;;;13.60;75.20;;;;;;4950242;28;20055;-70